Time;durP1;ratioP1;P1;durP2;ratioP2;P2;SDS_P1;SDS_P2;PMS_P1;PMS_P2;Temp;Humidity;BMP_temperature;BMP_pressure;BME280_temperature;BME280_humidity;BME280_pressure;Samples;Min_cycle;Max_cycle;Signal;HPM_P1;HPM_P2
2023/04/06 00:01:35;;;;;;;;;;;;;;;0.58;100.00;101795.00;5027816;28;19931;-73
2023/04/06 00:04:01;;;;;;;;;;;;;;;0.56;100.00;101794.16;5055546;28;19947;-73
2023/04/06 00:06:26;;;;;;;;;;;;;;;0.58;100.00;101790.59;5054401;28;19960;-73
2023/04/06 00:08:52;;;;;;;;;;;;;;;0.55;100.00;101790.66;5047639;28;20051;-73
2023/04/06 00:11:17;;;;;;;;;;;;;;;0.49;100.00;101793.41;5049778;28;19926;-73
2023/04/06 00:13:42;;;;;;;;;;;;;;;0.54;100.00;101785.38;5053940;28;19921;-73
2023/04/06 00:16:07;;;;;;;;;;;;;;;0.59;100.00;101783.53;5055671;28;20345;-73
2023/04/06 00:18:33;;;;;;;;;;;;;;;0.59;100.00;101776.47;5052588;28;20385;-73
2023/04/06 00:20:58;;;;;;;;;;;;;;;0.59;100.00;101783.53;5048499;28;19924;-73
2023/04/06 00:23:23;;;;;;;;;;;;;;;0.53;100.00;101773.94;5051068;28;20299;-73
2023/04/06 00:25:48;;;;;;;;;;;;;;;0.50;100.00;101778.44;5035391;28;20342;-73
2023/04/06 00:28:14;;;;;;;;;;;;;;;0.52;100.00;101774.00;5048196;28;20452;-73
2023/04/06 00:30:40;;;;;;;;;;;;;;;0.44;100.00;101775.03;5049032;28;19920;-73
2023/04/06 00:33:05;;;;;;;;;;;;;;;0.42;100.00;101774.19;5050420;28;20293;-73
2023/04/06 00:35:30;;;;;;;;;;;;;;;0.40;100.00;101770.69;5033925;28;19963;-72
2023/04/06 00:37:56;;;;;;;;;;;;;;;0.42;100.00;101775.94;5034456;28;19922;-73
2023/04/06 00:40:21;;;;;;;;;;;;;;;0.47;100.00;101774.06;5033007;28;19944;-73
2023/04/06 00:42:46;;;;;;;;;;;;;;;0.54;100.00;101777.44;5025202;28;19920;-72
2023/04/06 00:45:11;;;;;;;;;;;;;;;0.62;100.00;101770.25;5048709;28;19982;-72
2023/04/06 00:47:36;;;;;;;;;;;;;;;0.63;100.00;101761.41;5011974;28;19921;-73
2023/04/06 00:50:02;;;;;;;;;;;;;;;0.65;100.00;101764.03;5017010;28;20291;-72
2023/04/06 00:52:27;;;;;;;;;;;;;;;0.69;100.00;101760.41;5035114;28;19927;-72
2023/04/06 00:54:52;;;;;;;;;;;;;;;0.68;100.00;101756.91;5032213;28;20825;-72
2023/04/06 00:57:18;;;;;;;;;;;;;;;0.64;100.00;101759.66;5029820;28;19927;-73
2023/04/06 00:59:43;;;;;;;;;;;;;;;0.67;100.00;101751.63;5051796;28;20027;-73
2023/04/06 01:02:08;;;;;;;;;;;;;;;0.65;100.00;101750.81;5033583;28;20053;-72
2023/04/06 01:04:34;;;;;;;;;;;;;;;0.61;100.00;101752.66;5052817;28;19920;-72
2023/04/06 01:06:59;;;;;;;;;;;;;;;0.65;100.00;101748.19;5051662;28;19920;-72
2023/04/06 01:09:24;;;;;;;;;;;;;;;0.66;100.00;101742.84;5068294;22;19931;-73
2023/04/06 01:11:49;;;;;;;;;;;;;;;0.69;100.00;101733.97;5052413;28;20437;-72
2023/04/06 01:14:15;;;;;;;;;;;;;;;0.72;100.00;101731.25;5033002;28;19965;-72
2023/04/06 01:16:40;;;;;;;;;;;;;;;0.70;100.00;101736.59;5049523;28;20413;-72
2023/04/06 01:19:09;;;;;;;;;;;;;;;0.69;100.00;101736.59;5050341;28;19928;-72
2023/04/06 01:21:35;;;;;;;;;;;;;;;0.64;100.00;101735.88;5049912;28;20027;-72
2023/04/06 01:24:00;;;;;;;;;;;;;;;0.64;100.00;101730.59;5053409;28;20297;-72
2023/04/06 01:26:26;;;;;;;;;;;;;;;0.66;100.00;101729.63;5034342;28;19986;-72
2023/04/06 01:28:51;;;;;;;;;;;;;;;0.64;100.00;101726.16;5051996;28;19959;-72
2023/04/06 01:31:17;;;;;;;;;;;;;;;0.59;100.00;101734.19;5066703;28;20204;-72
2023/04/06 01:33:42;;;;;;;;;;;;;;;0.58;100.00;101726.28;5054785;28;20057;-72
2023/04/06 01:36:07;;;;;;;;;;;;;;;0.62;100.00;101721.81;5061760;28;19924;-72
2023/04/06 01:38:32;;;;;;;;;;;;;;;0.72;100.00;101716.28;5060706;28;19921;-72
2023/04/06 01:40:58;;;;;;;;;;;;;;;0.79;100.00;101713.50;5056793;28;19999;-72
2023/04/06 01:43:23;;;;;;;;;;;;;;;0.83;100.00;101710.75;5072605;28;20027;-72
2023/04/06 01:45:48;;;;;;;;;;;;;;;0.84;100.00;101701.03;5053951;28;19943;-72
2023/04/06 01:48:13;;;;;;;;;;;;;;;0.61;100.00;101652.22;5054677;28;20424;-72
2023/04/06 01:50:39;;;;;;;;;;;;;;;0.87;100.00;101698.31;5039591;28;20236;-72
2023/04/06 01:53:04;;;;;;;;;;;;;;;0.84;100.00;101701.91;5054930;28;20330;-72
2023/04/06 01:55:29;;;;;;;;;;;;;;;0.77;100.00;101700.31;5068964;28;19952;-72
2023/04/06 01:57:55;;;;;;;;;;;;;;;0.74;100.00;101701.25;5056288;28;20146;-72
2023/04/06 02:00:20;;;;;;;;;;;;;;;0.74;100.00;101697.72;5041206;28;19921;-72
2023/04/06 02:02:45;;;;;;;;;;;;;;;0.68;100.00;101700.50;5056450;28;19921;-72
2023/04/06 02:05:10;;;;;;;;;;;;;;;0.64;100.00;101694.44;5066248;28;20270;-72
2023/04/06 02:07:36;;;;;;;;;;;;;;;0.70;100.00;101696.06;5054621;28;19965;-72
2023/04/06 02:10:01;;;;;;;;;;;;;;;0.69;100.00;101686.38;5055290;28;19963;-72
2023/04/06 02:12:27;;;;;;;;;;;;;;;0.63;100.00;101676.84;5041761;28;20011;-72
2023/04/06 02:14:52;;;;;;;;;;;;;;;0.58;100.00;101678.69;5054536;28;19931;-72
2023/04/06 02:17:17;;;;;;;;;;;;;;;0.54;100.00;101671.75;5069536;28;19928;-72
2023/04/06 02:19:42;;;;;;;;;;;;;;;0.49;100.00;101671.00;5051820;28;19921;-72
2023/04/06 02:22:07;;;;;;;;;;;;;;;0.45;100.00;101667.53;5057828;28;19920;-72
2023/04/06 02:24:33;;;;;;;;;;;;;;;0.41;100.00;101671.16;5038553;28;19920;-72
2023/04/06 02:26:58;;;;;;;;;;;;;;;0.40;100.00;101669.41;5053031;28;19967;-72
2023/04/06 02:29:23;;;;;;;;;;;;;;;0.38;100.00;101660.69;5053952;28;19920;-72
2023/04/06 02:31:48;;;;;;;;;;;;;;;0.40;100.00;101669.41;5032374;28;19921;-72
2023/04/06 02:34:17;;;;;;;;;;;;;;;0.35;100.00;101666.88;5052143;28;19946;-72
2023/04/06 02:36:45;;;;;;;;;;;;;;;0.26;100.00;101661.81;5049664;28;20011;-72
2023/04/06 02:39:11;;;;;;;;;;;;;;;0.19;100.00;101661.06;5049613;28;20049;-72
2023/04/06 02:41:36;;;;;;;;;;;;;;;0.19;100.00;101660.19;5056835;28;20034;-72
2023/04/06 02:44:01;;;;;;;;;;;;;;;0.17;100.00;101660.22;5054045;28;19924;-72
2023/04/06 02:46:27;;;;;;;;;;;;;;;0.22;100.00;101646.94;5051767;28;19921;-72
2023/04/06 02:48:52;;;;;;;;;;;;;;;0.25;100.00;101650.38;5049435;28;19931;-73
2023/04/06 02:51:17;;;;;;;;;;;;;;;0.33;100.00;101652.81;5059431;28;19924;-72
2023/04/06 02:53:43;;;;;;;;;;;;;;;0.36;100.00;101647.47;5041586;28;19921;-72
2023/04/06 02:56:08;;;;;;;;;;;;;;;0.41;100.00;101642.97;5057999;28;20314;-72
2023/04/06 02:58:33;;;;;;;;;;;;;;;0.48;100.00;101640.19;5040577;28;20314;-72
2023/04/06 03:00:58;;;;;;;;;;;;;;;0.54;100.00;101637.38;5042026;28;20370;-72
2023/04/06 03:03:23;;;;;;;;;;;;;;;0.67;100.00;101632.69;5042168;28;19924;-72
2023/04/06 03:05:49;;;;;;;;;;;;;;;0.74;100.00;101632.53;5043929;28;19928;-72
2023/04/06 03:08:15;;;;;;;;;;;;;;;0.87;100.00;101624.28;5035925;28;19925;-72
2023/04/06 03:10:40;;;;;;;;;;;;;;;1.04;100.00;101632.69;5036784;28;19920;-72
2023/04/06 03:13:05;;;;;;;;;;;;;;;1.20;100.00;101621.69;5030868;28;19921;-72
2023/04/06 03:15:30;;;;;;;;;;;;;;;1.35;100.00;101625.72;5031877;28;19928;-72
2023/04/06 03:17:56;;;;;;;;;;;;;;;1.39;100.00;101629.16;5035858;28;19921;-72
2023/04/06 03:20:21;;;;;;;;;;;;;;;1.29;100.00;101624.13;5035042;28;19927;-72
2023/04/06 03:22:47;;;;;;;;;;;;;;;1.25;100.00;101622.44;5034015;28;19982;-72
2023/04/06 03:25:12;;;;;;;;;;;;;;;1.25;100.00;101624.22;5036122;28;19924;-72
2023/04/06 03:27:37;;;;;;;;;;;;;;;1.18;100.00;101618.22;5037688;28;19925;-72
2023/04/06 03:30:03;;;;;;;;;;;;;;;1.13;100.00;101617.47;5029947;28;20063;-72
2023/04/06 03:32:28;;;;;;;;;;;;;;;1.16;100.00;101612.09;5034171;28;19995;-72
2023/04/06 03:34:53;;;;;;;;;;;;;;;1.19;100.00;101617.31;5041471;28;20007;-72
2023/04/06 03:37:18;;;;;;;;;;;;;;;1.26;100.00;101618.91;5041643;28;19998;-72
2023/04/06 03:39:44;;;;;;;;;;;;;;;1.36;100.00;101614.22;5034600;28;20050;-72
2023/04/06 03:42:09;;;;;;;;;;;;;;;1.51;100.00;101607.66;5057107;28;20003;-72
2023/04/06 03:44:34;;;;;;;;;;;;;;;1.59;100.00;101605.63;5043193;28;19921;-72
2023/04/06 03:47:00;;;;;;;;;;;;;;;1.71;100.00;101604.44;5043657;28;19920;-72
2023/04/06 03:49:26;;;;;;;;;;;;;;;1.75;100.00;101603.44;5044698;28;19990;-72
2023/04/06 03:51:51;;;;;;;;;;;;;;;1.78;100.00;101611.28;5029163;28;20445;-72
2023/04/06 03:54:16;;;;;;;;;;;;;;;1.85;100.00;101603.19;5039276;28;19921;-72
2023/04/06 03:56:41;;;;;;;;;;;;;;;1.91;100.00;101601.22;5045090;28;19986;-72
2023/04/06 03:59:06;;;;;;;;;;;;;;;1.96;100.00;101601.09;5033660;28;19921;-72
2023/04/06 04:01:32;;;;;;;;;;;;;;;1.95;100.00;101599.34;5035036;28;21624;-72
2023/04/06 04:03:57;;;;;;;;;;;;;;;1.94;100.00;101605.56;5040387;28;19925;-72
2023/04/06 04:06:22;;;;;;;;;;;;;;;1.96;100.00;101601.09;5036247;28;19927;-72
2023/04/06 04:08:48;;;;;;;;;;;;;;;1.94;100.00;101603.78;5039754;28;19920;-72
2023/04/06 04:11:13;;;;;;;;;;;;;;;1.99;100.00;101600.13;5039357;28;19921;-72
2023/04/06 04:13:38;;;;;;;;;;;;;;;1.95;100.00;101608.16;5057918;28;19925;-72
2023/04/06 04:16:04;;;;;;;;;;;;;;;1.91;100.00;101603.00;5033926;28;20562;-72
2023/04/06 04:18:29;;;;;;;;;;;;;;;1.85;100.00;101603.19;5039211;28;20021;-72
2023/04/06 04:20:54;;;;;;;;;;;;;;;1.85;100.00;101608.47;5035546;28;20376;-72
2023/04/06 04:23:20;;;;;;;;;;;;;;;1.83;100.00;101602.34;5033450;28;20026;-72
2023/04/06 04:25:45;;;;;;;;;;;;;;;1.82;100.00;101609.44;5036362;28;20016;-72
2023/04/06 04:28:10;;;;;;;;;;;;;;;1.85;100.00;101606.72;5039665;28;19916;-72
2023/04/06 04:30:35;;;;;;;;;;;;;;;1.78;100.00;101610.44;5037342;28;19917;-72
2023/04/06 04:33:01;;;;;;;;;;;;;;;1.76;100.00;101614.91;5039822;28;19931;-72
2023/04/06 04:35:26;;;;;;;;;;;;;;;1.73;100.00;101609.69;5042284;28;19921;-72
2023/04/06 04:37:51;;;;;;;;;;;;;;;1.78;100.00;101611.28;5044267;28;19924;-72
2023/04/06 04:40:17;;;;;;;;;;;;;;;1.88;100.00;101608.38;5038147;28;20260;-72
2023/04/06 04:42:42;;;;;;;;;;;;;;;1.92;100.00;101610.03;5036493;28;20744;-72
2023/04/06 04:45:07;;;;;;;;;;;;;;;1.98;100.00;101606.34;5038623;28;19921;-72
2023/04/06 04:47:33;;;;;;;;;;;;;;;1.93;100.00;101609.97;5031727;28;20011;-73
2023/04/06 04:49:58;;;;;;;;;;;;;;;1.92;100.00;101605.59;5033682;28;20031;-72
2023/04/06 04:52:23;;;;;;;;;;;;;;;1.91;100.00;101606.50;5035098;28;19920;-73
2023/04/06 04:54:48;;;;;;;;;;;;;;;1.92;100.00;101597.66;5038841;28;19943;-72
2023/04/06 04:57:14;;;;;;;;;;;;;;;1.96;100.00;101603.75;5033763;28;19920;-73
2023/04/06 04:59:39;;;;;;;;;;;;;;;1.92;100.00;101602.09;5029117;28;20240;-73
2023/04/06 05:02:04;;;;;;;;;;;;;;;1.86;100.00;101600.47;5032994;28;19921;-72
2023/04/06 05:04:30;;;;;;;;;;;;;;;1.88;100.00;101598.66;5043987;28;20472;-73
2023/04/06 05:07:02;;;;;;;;;;;;;;;1.79;100.00;101599.78;5032206;28;19969;-73
2023/04/06 05:09:29;;;;;;;;;;;;;;;1.91;100.00;101606.50;5037515;28;19928;-73
2023/04/06 05:11:55;;;;;;;;;;;;;;;1.95;100.00;101604.66;5054362;28;19928;-72
2023/04/06 05:14:20;;;;;;;;;;;;;;;1.87;100.00;101604.84;5038075;28;20192;-73
2023/04/06 05:16:45;;;;;;;;;;;;;;;1.89;100.00;101608.31;5034741;28;19928;-72
2023/04/06 05:19:11;;;;;;;;;;;;;;;1.90;100.00;101614.50;5036411;28;19921;-73
2023/04/06 05:21:36;;;;;;;;;;;;;;;1.99;100.00;101598.31;5041095;28;19927;-73
2023/04/06 05:24:02;;;;;;;;;;;;;;;1.84;100.00;101602.31;5036886;28;19921;-73
2023/04/06 05:26:27;;;;;;;;;;;;;;;2.03;100.00;101599.97;5036952;28;19920;-73
2023/04/06 05:28:52;;;;;;;;;;;;;;;1.98;100.00;101598.38;5038343;28;19970;-73
2023/04/06 05:31:18;;;;;;;;;;;;;;;1.99;100.00;101603.63;5033709;28;19960;-72
2023/04/06 05:33:43;;;;;;;;;;;;;;;2.02;100.00;101600.88;5040133;28;19921;-73
2023/04/06 05:36:08;;;;;;;;;;;;;;;2.12;100.00;101595.31;5039777;28;20091;-73
2023/04/06 05:38:33;;;;;;;;;;;;;;;2.11;100.00;101597.13;5034298;28;19974;-73
2023/04/06 05:40:59;;;;;;;;;;;;;;;2.17;100.00;101602.22;5036888;28;19952;-73
2023/04/06 05:43:24;;;;;;;;;;;;;;;2.21;100.00;101592.41;5044651;28;19932;-73
2023/04/06 05:45:49;;;;;;;;;;;;;;;2.25;100.00;101591.41;5035095;28;20177;-72
2023/04/06 05:48:14;;;;;;;;;;;;;;;2.19;100.00;101565.09;5036973;28;19932;-73
2023/04/06 05:50:40;;;;;;;;;;;;;;;2.49;100.00;101583.59;5034881;28;19951;-72
2023/04/06 05:53:05;;;;;;;;;;;;;;;2.45;100.00;101585.44;5041690;28;19920;-72
2023/04/06 05:55:30;;;;;;;;;;;;;;;2.52;100.00;101584.34;5035902;28;19987;-73
2023/04/06 05:57:55;;;;;;;;;;;;;;;2.62;100.00;101582.25;5036924;28;20346;-72
2023/04/06 06:00:21;;;;;;;;;;;;;;;2.70;100.00;101577.59;5031840;28;19925;-73
2023/04/06 06:02:46;;;;;;;;;;;;;;;2.81;100.00;101581.66;5039214;28;19925;-73
2023/04/06 06:05:11;;;;;;;;;;;;;;;2.94;100.00;101579.44;5036275;28;19921;-73
2023/04/06 06:07:36;;;;;;;;;;;;;;;3.07;100.00;101578.13;5036700;28;19916;-73
2023/04/06 06:10:02;;;;;;;;;;;;;;;3.19;100.00;101574.19;5035127;28;19920;-73
2023/04/06 06:12:27;;;;;;;;;;;;;;;3.28;100.00;101576.53;5032040;28;19928;-73
2023/04/06 06:14:53;;;;;;;;;;;;;;;3.39;100.00;101577.91;5035826;28;20235;-72
2023/04/06 06:17:18;;;;;;;;;;;;;;;3.54;100.00;101585.34;5038248;28;20495;-73
2023/04/06 06:19:43;;;;;;;;;;;;;;;3.79;100.00;101578.22;5035454;28;20260;-73
2023/04/06 06:22:08;;;;;;;;;;;;;;;3.71;100.00;101578.53;5037133;28;19968;-73
2023/04/06 06:24:33;;;;;;;;;;;;;;;3.77;100.00;101572.09;5030558;28;19967;-73
2023/04/06 06:26:59;;;;;;;;;;;;;;;3.82;100.00;101570.16;5034188;28;20027;-73
2023/04/06 06:29:24;;;;;;;;;;;;;;;3.93;100.00;101572.41;5033322;28;20495;-73
2023/04/06 06:31:49;;;;;;;;;;;;;;;4.03;100.00;101569.31;5033355;28;19921;-73
2023/04/06 06:34:21;;;;;;;;;;;;;;;4.00;100.00;101572.09;5038030;28;19947;-72
2023/04/06 06:36:47;;;;;;;;;;;;;;;4.24;100.00;101569.41;5043726;28;19960;-72
2023/04/06 06:39:12;;;;;;;;;;;;;;;4.20;100.00;101568.66;5042440;28;20058;-72
2023/04/06 06:41:37;;;;;;;;;;;;;;;4.27;100.00;101571.09;5032397;28;20317;-72
2023/04/06 06:44:02;;;;;;;;;;;;;;;4.27;100.00;101571.94;5073679;28;19964;-72
2023/04/06 06:46:28;;;;;;;;;;;;;;;4.32;100.00;101577.94;5065525;28;19925;-72
2023/04/06 06:48:53;;;;;;;;;;;;;;;4.52;100.00;101570.97;5036334;28;19924;-72
2023/04/06 06:51:18;;;;;;;;;;;;;;;4.50;100.00;101573.69;5081170;28;19927;-72
2023/04/06 06:53:43;;;;;;;;;;;;;;;4.69;100.00;101572.94;5027051;28;19925;-72
2023/04/06 06:56:09;;;;;;;;;;;;;;;4.58;100.00;101572.53;5052056;28;19975;-72
2023/04/06 06:58:34;;;;;;;;;;;;;;;4.79;100.00;101568.09;5045894;28;19921;-72
2023/04/06 07:00:59;;;;;;;;;;;;;;;4.82;100.00;101573.28;5022050;28;19920;-73
2023/04/06 07:03:25;;;;;;;;;;;;;;;4.78;100.00;101577.00;5066313;28;19925;-73
2023/04/06 07:05:53;;;;;;;;;;;;;;;4.88;100.00;101585.50;5072525;28;19924;-72
2023/04/06 07:08:19;;;;;;;;;;;;;;;4.98;100.00;101572.66;5073162;28;20383;-72
2023/04/06 07:10:44;;;;;;;;;;;;;;;4.97;100.00;101581.56;5042159;28;20369;-73
2023/04/06 07:13:10;;;;;;;;;;;;;;;5.02;100.00;101575.13;5042280;28;20142;-72
2023/04/06 07:15:35;;;;;;;;;;;;;;;5.20;100.00;101573.47;5054245;28;19916;-73
2023/04/06 07:18:00;;;;;;;;;;;;;;;5.13;100.00;101577.31;5049170;28;19921;-72
2023/04/06 07:20:27;;;;;;;;;;;;;;;5.12;100.00;101570.25;5071549;28;20344;-73
2023/04/06 07:22:53;;;;;;;;;;;;;;;5.33;100.00;101567.56;5041808;28;20761;-74
2023/04/06 07:25:18;;;;;;;;;;;;;;;5.27;100.00;101567.88;5040221;28;20430;-72
2023/04/06 07:27:43;;;;;;;;;;;;;;;5.48;100.00;101564.25;5047686;28;19920;-73
2023/04/06 07:30:08;;;;;;;;;;;;;;;5.35;100.00;101558.59;5037915;28;19928;-73
2023/04/06 07:32:35;;;;;;;;;;;;;;;5.33;100.00;101559.59;5043856;28;19924;-73
2023/04/06 07:35:00;;;;;;;;;;;;;;;5.28;100.00;101535.84;5040877;28;19921;-72
2023/04/06 07:37:25;;;;;;;;;;;;;;;5.58;100.00;101563.81;5049444;28;20378;-72
2023/04/06 07:39:51;;;;;;;;;;;;;;;5.41;100.00;101560.13;5044662;28;20383;-73
2023/04/06 07:42:16;;;;;;;;;;;;;;;5.52;100.00;101560.53;5047368;28;20514;-72
2023/04/06 07:44:41;;;;;;;;;;;;;;;5.64;100.00;101555.56;5039042;28;19917;-73
2023/04/06 07:47:06;;;;;;;;;;;;;;;5.60;100.00;101548.63;5028700;28;19936;-73
2023/04/06 07:49:32;;;;;;;;;;;;;;;5.59;100.00;101549.56;5031953;28;19974;-72
2023/04/06 07:51:58;;;;;;;;;;;;;;;5.76;100.00;101554.13;5029505;28;20227;-73
2023/04/06 07:54:23;;;;;;;;;;;;;;;5.88;100.00;101558.03;5058328;28;20359;-72
2023/04/06 07:56:48;;;;;;;;;;;;;;;5.95;100.00;101556.81;5057304;28;20043;-73
2023/04/06 07:59:13;;;;;;;;;;;;;;;5.97;100.00;101555.78;5057658;28;19994;-73
2023/04/06 08:01:39;;;;;;;;;;;;;;;6.00;98.58;101562.81;5027706;28;19964;-73
2023/04/06 08:04:04;;;;;;;;;;;;;;;6.09;96.31;101550.84;5024437;28;20035;-73
2023/04/06 08:06:30;;;;;;;;;;;;;;;6.33;100.00;101558.63;5059278;28;19929;-72
2023/04/06 08:08:55;;;;;;;;;;;;;;;6.43;95.91;101559.91;5036836;28;20313;-73
2023/04/06 08:11:21;;;;;;;;;;;;;;;6.33;97.99;101554.16;5062281;28;20269;-73
2023/04/06 08:13:46;;;;;;;;;;;;;;;6.62;97.75;101553.66;5036252;28;19928;-73
2023/04/06 08:16:11;;;;;;;;;;;;;;;6.97;90.23;101551.03;5041046;28;20514;-73
2023/04/06 08:18:36;;;;;;;;;;;;;;;6.49;95.08;101551.56;5033766;28;20284;-73
2023/04/06 08:21:02;;;;;;;;;;;;;;;6.67;93.92;101552.47;5029351;28;20323;-72
2023/04/06 08:23:27;;;;;;;;;;;;;;;6.79;93.26;101552.81;5033958;28;19971;-72
2023/04/06 08:25:55;;;;;;;;;;;;;;;6.69;99.29;101550.59;5036755;28;19967;-73
2023/04/06 08:28:21;;;;;;;;;;;;;;;6.69;95.33;101550.59;5022232;28;19917;-73
2023/04/06 08:30:46;;;;;;;;;;;;;;;6.82;99.44;101556.19;5057595;28;19931;-73
2023/04/06 08:33:11;;;;;;;;;;;;;;;6.81;96.29;101553.59;5042625;28;19999;-73
2023/04/06 08:35:37;;;;;;;;;;;;;;;6.99;93.76;101549.97;5021537;28;19951;-73
2023/04/06 08:38:02;;;;;;;;;;;;;;;7.13;95.89;101556.44;5029658;28;20378;-73
2023/04/06 08:40:27;;;;;;;;;;;;;;;7.03;98.06;101553.34;5026411;28;20617;-72
2023/04/06 08:42:54;;;;;;;;;;;;;;;7.14;97.94;101553.66;5059662;28;19982;-73
2023/04/06 08:45:21;;;;;;;;;;;;;;;7.24;96.94;101551.38;5032290;28;19940;-73
2023/04/06 08:47:46;;;;;;;;;;;;;;;7.26;95.21;101556.66;5013576;28;19921;-72
2023/04/06 08:50:11;;;;;;;;;;;;;;;7.39;95.20;101551.53;5014129;28;20263;-72
2023/04/06 08:52:36;;;;;;;;;;;;;;;7.65;90.94;101552.78;5030240;28;20015;-73
2023/04/06 08:55:02;;;;;;;;;;;;;;;7.42;89.06;101551.34;5028539;28;20059;-73
2023/04/06 08:57:27;;;;;;;;;;;;;;;7.62;91.34;101555.63;5059836;28;19956;-72
2023/04/06 08:59:52;;;;;;;;;;;;;;;7.50;93.60;101551.81;5030661;28;20016;-73
2023/04/06 09:02:19;;;;;;;;;;;;;;;7.81;89.09;101548.31;5046751;28;20194;-73
2023/04/06 09:04:52;;;;;;;;;;;;;;;7.55;92.83;101554.25;5062870;28;20134;-74
2023/04/06 09:07:17;;;;;;;;;;;;;;;7.64;89.12;101551.06;5037266;28;20039;-73
2023/04/06 09:09:47;;;;;;;;;;;;;;;7.55;93.96;101552.44;5033251;28;19913;-74
2023/04/06 09:12:22;;;;;;;;;;;;;;;7.61;91.37;101557.44;5023602;28;20360;-73
2023/04/06 09:14:47;;;;;;;;;;;;;;;7.62;95.55;101558.31;5030315;28;20517;-73
2023/04/06 09:17:22;;;;;;;;;;;;;;;7.50;90.47;101555.34;5036550;28;19951;-73
2023/04/06 09:19:48;;;;;;;;;;;;;;;7.55;90.69;101549.75;5035234;28;20014;-73
2023/04/06 09:22:13;;;;;;;;;;;;;;;7.70;90.00;101553.41;5026055;28;20035;-74
2023/04/06 09:24:42;;;;;;;;;;;;;;;7.81;97.09;101558.16;5034840;28;19925;-74
2023/04/06 09:27:08;;;;;;;;;;;;;;;7.88;92.66;101567.59;5034395;28;19920;-73
2023/04/06 09:29:33;;;;;;;;;;;;;;;7.85;91.16;101554.38;5028742;28;19925;-73
2023/04/06 09:32:05;;;;;;;;;;;;;;;8.07;86.58;101553.19;5027645;28;19920;-73
2023/04/06 09:34:31;;;;;;;;;;;;;;;7.88;88.97;101566.72;5032901;28;19929;-73
2023/04/06 09:36:56;;;;;;;;;;;;;;;7.92;92.41;101555.78;5032690;28;20509;-73
2023/04/06 09:39:25;;;;;;;;;;;;;;;8.13;86.79;101554.66;5032497;28;19920;-73
2023/04/06 09:41:51;;;;;;;;;;;;;;;8.15;85.90;101558.09;5022231;28;19921;-73
2023/04/06 09:44:16;;;;;;;;;;;;;;;8.18;86.41;101558.81;5042170;28;19927;-72
2023/04/06 09:46:41;;;;;;;;;;;;;;;8.02;86.86;101556.13;5028092;28;19928;-73
2023/04/06 09:49:07;;;;;;;;;;;;;;;8.11;90.92;101547.56;5055002;28;19921;-74
2023/04/06 09:51:37;;;;;;;;;;;;;;;8.14;88.02;101548.34;5059940;28;19962;-73
2023/04/06 09:54:04;;;;;;;;;;;;;;;7.99;85.78;101553.63;5059250;28;20152;-72
2023/04/06 09:56:32;;;;;;;;;;;;;;;8.34;82.68;101547.22;5024957;28;19972;-74
2023/04/06 09:59:02;;;;;;;;;;;;;;;8.37;85.12;101549.72;5024939;28;19920;-73
2023/04/06 10:01:28;;;;;;;;;;;;;;;8.21;92.18;101552.41;5034582;28;20110;-74
2023/04/06 10:03:56;;;;;;;;;;;;;;;8.32;90.67;101554.47;5023899;28;19932;-73
2023/04/06 10:06:22;;;;;;;;;;;;;;;8.44;93.31;101553.78;5035511;28;19927;-74
2023/04/06 10:08:48;;;;;;;;;;;;;;;8.44;87.61;101551.13;5049324;28;19929;-74
2023/04/06 10:11:13;;;;;;;;;;;;;;;8.76;88.75;101544.88;5027688;28;19951;-73
2023/04/06 10:13:38;;;;;;;;;;;;;;;8.81;84.71;101553.50;5034401;28;20340;-72
2023/04/06 10:16:03;;;;;;;;;;;;;;;8.68;92.30;101550.69;5026048;28;20244;-73
2023/04/06 10:18:29;;;;;;;;;;;;;;;8.90;89.09;101562.78;5054727;28;19944;-73
2023/04/06 10:20:55;;;;;;;;;;;;;;;8.76;85.47;101552.91;5028205;28;19924;-73
2023/04/06 10:23:28;;;;;;;;;;;;;;;8.98;85.35;101547.97;5033835;28;20317;-74
2023/04/06 10:25:54;;;;;;;;;;;;;;;8.88;86.20;101559.34;5062083;28;19928;-72
2023/04/06 10:28:19;;;;;;;;;;;;;;;8.87;91.04;101554.94;5026672;28;20016;-73
2023/04/06 10:30:45;;;;;;;;;;;;;;;9.05;88.38;101553.84;5018741;28;19921;-73
2023/04/06 10:33:17;;;;;;;;;;;;;;;9.21;90.80;101552.94;5034690;28;19924;-72
2023/04/06 10:35:42;;;;;;;;;;;;;;;9.49;89.99;101551.22;5026978;28;19921;-73
2023/04/06 10:38:07;;;;;;;;;;;;;;;9.53;85.55;101552.78;5031356;28;19917;-73
2023/04/06 10:40:35;;;;;;;;;;;;;;;9.47;89.71;101558.50;5055455;28;19954;-73
2023/04/06 10:43:10;;;;;;;;;;;;;;;9.72;92.04;101556.00;5034574;28;19948;-72
2023/04/06 10:45:36;;;;;;;;;;;;;;;9.45;89.83;101556.78;5028033;28;19924;-72
2023/04/06 10:48:04;;;;;;;;;;;;;;;9.44;91.34;101547.00;5058311;28;20035;-73
2023/04/06 10:50:29;;;;;;;;;;;;;;;9.41;95.76;101549.88;5026209;28;19956;-73
2023/04/06 10:53:01;;;;;;;;;;;;;;;9.33;95.66;101552.16;5024261;28;20024;-73
2023/04/06 10:55:27;;;;;;;;;;;;;;;9.15;100.00;101554.13;5015229;28;19982;-73
2023/04/06 10:57:52;;;;;;;;;;;;;;;9.28;100.00;101556.94;5021751;28;19921;-73
2023/04/06 11:00:19;;;;;;;;;;;;;;;9.25;100.00;101555.31;5022001;28;19999;-72
2023/04/06 11:02:44;;;;;;;;;;;;;;;9.23;100.00;101559.06;5026567;28;19925;-73
2023/04/06 11:05:11;;;;;;;;;;;;;;;8.68;100.00;101566.75;5020805;28;20626;-72
2023/04/06 11:07:36;;;;;;;;;;;;;;;8.49;100.00;101557.06;5029683;28;19928;-72
2023/04/06 11:10:02;;;;;;;;;;;;;;;8.45;100.00;101560.88;5026886;28;19921;-73
2023/04/06 11:12:27;;;;;;;;;;;;;;;8.45;100.00;101560.00;5021667;28;19932;-74
2023/04/06 11:15:00;;;;;;;;;;;;;;;8.53;100.00;101558.63;5024166;28;19921;-73
2023/04/06 11:17:28;;;;;;;;;;;;;;;8.66;100.00;101557.94;5025355;28;19921;-73
2023/04/06 11:19:54;;;;;;;;;;;;;;;8.46;100.00;101562.59;5018223;28;19991;-73
2023/04/06 11:22:19;;;;;;;;;;;;;;;8.16;100.00;101557.16;5025700;28;19920;-73
2023/04/06 11:24:45;;;;;;;;;;;;;;;8.30;100.00;101557.25;5017717;28;19923;-73
2023/04/06 11:27:10;;;;;;;;;;;;;;;8.04;100.00;101554.25;5020443;28;19913;-73
2023/04/06 11:29:37;;;;;;;;;;;;;;;8.19;100.00;101540.94;5021852;28;19921;-76
2023/04/06 11:32:04;;;;;;;;;;;;;;;8.00;100.00;101555.34;5026114;28;20316;-74
2023/04/06 11:34:32;;;;;;;;;;;;;;;8.06;100.00;101557.69;5030448;28;19936;-72
2023/04/06 11:36:58;;;;;;;;;;;;;;;7.87;100.00;101538.25;5029301;28;19936;-73
2023/04/06 11:39:24;;;;;;;;;;;;;;;8.07;100.00;101561.22;5019507;28;19925;-72
2023/04/06 11:41:50;;;;;;;;;;;;;;;8.14;100.00;101545.69;5029303;28;19921;-73
2023/04/06 11:44:15;;;;;;;;;;;;;;;7.81;100.00;101547.47;5036230;28;19928;-72
2023/04/06 11:46:41;;;;;;;;;;;;;;;7.62;100.00;101542.25;5025738;28;20371;-73
2023/04/06 11:49:06;;;;;;;;;;;;;;;7.73;100.00;101539.00;5030421;28;19921;-72
2023/04/06 11:51:35;;;;;;;;;;;;;;;7.48;100.00;101551.03;5034140;28;20377;-72
2023/04/06 11:54:00;;;;;;;;;;;;;;;7.47;100.00;101528.81;5030386;28;20019;-72
2023/04/06 11:56:29;;;;;;;;;;;;;;;7.36;100.00;101536.50;5030726;28;19912;-72
2023/04/06 11:58:55;;;;;;;;;;;;;;;7.38;100.00;101513.25;5032247;28;19925;-74
2023/04/06 12:01:20;;;;;;;;;;;;;;;7.61;100.00;101533.41;5028254;28;20217;-74
2023/04/06 12:03:45;;;;;;;;;;;;;;;7.46;100.00;101537.75;5031962;28;19921;-72
2023/04/06 12:06:10;;;;;;;;;;;;;;;7.55;100.00;101527.53;5031099;28;19924;-76
2023/04/06 12:08:36;;;;;;;;;;;;;;;7.37;100.00;101543.59;5035589;28;20372;-74
2023/04/06 12:11:02;;;;;;;;;;;;;;;7.40;100.00;101537.22;5028098;28;20287;-73
2023/04/06 12:13:27;;;;;;;;;;;;;;;7.18;100.00;101519.66;5026223;28;20407;-74
2023/04/06 12:15:52;;;;;;;;;;;;;;;7.22;100.00;101545.25;5029225;28;19921;-74
2023/04/06 12:18:18;;;;;;;;;;;;;;;7.17;100.00;101523.25;5033308;28;19928;-73
2023/04/06 12:20:43;;;;;;;;;;;;;;;7.23;100.00;101530.97;5024379;28;19964;-75
2023/04/06 12:23:08;;;;;;;;;;;;;;;7.01;100.00;101533.91;5028110;28;19921;-73
2023/04/06 12:25:33;;;;;;;;;;;;;;;6.97;100.00;101535.00;5027936;28;19975;-73
2023/04/06 12:27:59;;;;;;;;;;;;;;;6.98;100.00;101539.41;5030104;28;19921;-73
2023/04/06 12:30:24;;;;;;;;;;;;;;;7.11;100.00;101540.47;5023119;28;19931;-73